Terminal Aerodrome Forecast
Issued by NWS Hastings, NE

Home | Current Version | Previous Version | Text Only | Print | Product List | Glossary On
Versions: 1 2 3 4 5 6 7 8 9 10 11 12 13 14
000
FTUS45 KGID 252320
TAFEAR
TAF
KEAR 252320Z 2600/2624 VRB05KT P6SM FEW250
     FM260600 23007KT P6SM BKN250
     FM261300 33011KT P6SM BKN120
     FM261600 35018G26KT P6SM BKN100
     FM261800 35023G30KT P6SM VCSH BKN050=

USA.gov is the U.S. government's official web portal to all federal, state and local government web resources and services.